Old Mission, Michigan
Current Conditions -  °F | °C
As of 9:58 AM on Friday 28 Nov 2014 (Local Time) from KACB Reporting Station
Scattered Clouds Scattered Clouds  
Wind Chill: 10°   Ceiling: Unl
Heat Index: 19°   Visibility: 10mi
Dew Point: 13°   Wind: 7mph
Humidity: 78%   Direction: 170°S
Pressure: 30.23"   Gusts: NA
Location:  44.96°N, 85.49°W
Report Text: KACB 281458Z AUTO 17006KT 10SM SCT070 SCT080 SCT120 M07/M10 A3023 RMK AO2 T10721104
Loading
Personal Weather Stations






























Interactive Weather Map New forecast layout! Learn more

10-Day Weather Forecast

Advertisements
Track Severe Weather on mobile